sensor_id;sensor_type;location;lat;lon;timestamp;pressure;altitude;pressure_sealevel;temperature;humidity
6435;BME280;3250;42.694;23.278;2023-04-05T00:02:07;94346.59;;;2.71;82.63
6435;BME280;3250;42.694;23.278;2023-04-05T00:04:35;94355.78;;;2.81;82.82
6435;BME280;3250;42.694;23.278;2023-04-05T00:07:02;94328.31;;;2.64;82.65
6435;BME280;3250;42.694;23.278;2023-04-05T00:09:32;94351.69;;;2.64;82.75
6435;BME280;3250;42.694;23.278;2023-04-05T00:11:57;94360.47;;;2.63;82.57
6435;BME280;3250;42.694;23.278;2023-04-05T00:14:23;94353.50;;;2.63;82.77
6435;BME280;3250;42.694;23.278;2023-04-05T00:16:49;94357.38;;;2.68;83.14
6435;BME280;3250;42.694;23.278;2023-04-05T00:19:14;94342.28;;;2.63;82.76
6435;BME280;3250;42.694;23.278;2023-04-05T00:21:39;94331.78;;;2.56;83.24
6435;BME280;3250;42.694;23.278;2023-04-05T00:24:06;94348.06;;;2.73;83.41
6435;BME280;3250;42.694;23.278;2023-04-05T00:26:32;94303.38;;;2.40;83.03
6435;BME280;3250;42.694;23.278;2023-04-05T00:28:57;94356.13;;;2.78;82.94
6435;BME280;3250;42.694;23.278;2023-04-05T00:31:23;94343.75;;;2.80;82.41
6435;BME280;3250;42.694;23.278;2023-04-05T00:33:48;94350.75;;;2.80;82.30
6435;BME280;3250;42.694;23.278;2023-04-05T00:36:15;94357.84;;;2.86;82.50
6435;BME280;3250;42.694;23.278;2023-04-05T00:38:42;94354.47;;;2.85;82.42
6435;BME280;3250;42.694;23.278;2023-04-05T00:41:09;94344.56;;;2.81;81.92
6435;BME280;3250;42.694;23.278;2023-04-05T00:43:35;94348.97;;;2.80;82.15
6435;BME280;3250;42.694;23.278;2023-04-05T00:46:01;94343.75;;;2.80;82.16
6435;BME280;3250;42.694;23.278;2023-04-05T00:48:27;94361.94;;;2.80;82.10
6435;BME280;3250;42.694;23.278;2023-04-05T00:50:53;94343.66;;;2.74;82.03
6435;BME280;3250;42.694;23.278;2023-04-05T00:53:19;94327.97;;;2.67;82.14
6435;BME280;3250;42.694;23.278;2023-04-05T00:55:46;94330.56;;;2.67;81.54
6435;BME280;3250;42.694;23.278;2023-04-05T00:58:15;94352.53;;;2.79;81.82
6435;BME280;3250;42.694;23.278;2023-04-05T01:00:49;94348.22;;;2.72;82.17
6435;BME280;3250;42.694;23.278;2023-04-05T01:03:17;94367.25;;;2.87;81.83
6435;BME280;3250;42.694;23.278;2023-04-05T01:11:04;94326.44;;;2.58;81.67
6435;BME280;3250;42.694;23.278;2023-04-05T01:13:31;94363.56;;;2.81;81.48
6435;BME280;3250;42.694;23.278;2023-04-05T01:15:57;94369.84;;;2.87;81.74
6435;BME280;3250;42.694;23.278;2023-04-05T01:18:23;94348.94;;;2.65;81.21
6435;BME280;3250;42.694;23.278;2023-04-05T01:29:38;94376.09;;;3.00;80.17
6435;BME280;3250;42.694;23.278;2023-04-05T01:32:17;94378.31;;;3.03;80.38
6435;BME280;3250;42.694;23.278;2023-04-05T01:35:17;94375.91;;;3.02;80.00
6435;BME280;3250;42.694;23.278;2023-04-05T01:37:48;94342.78;;;2.81;80.35
6435;BME280;3250;42.694;23.278;2023-04-05T01:40:17;94363.25;;;2.99;80.01
6435;BME280;3250;42.694;23.278;2023-04-05T01:42:43;94383.97;;;3.07;80.03
6435;BME280;3250;42.694;23.278;2023-04-05T01:45:12;94377.88;;;3.00;80.40
6435;BME280;3250;42.694;23.278;2023-04-05T01:47:37;94355.25;;;2.86;80.30
6435;BME280;3250;42.694;23.278;2023-04-05T01:50:03;94367.72;;;2.90;80.07
6435;BME280;3250;42.694;23.278;2023-04-05T01:52:28;94373.72;;;2.91;80.05
6435;BME280;3250;42.694;23.278;2023-04-05T01:54:54;94381.09;;;3.02;80.25
6435;BME280;3250;42.694;23.278;2023-04-05T01:57:19;94379.91;;;2.90;80.12
6435;BME280;3250;42.694;23.278;2023-04-05T01:59:45;94367.88;;;2.89;80.26
6435;BME280;3250;42.694;23.278;2023-04-05T02:02:10;94379.31;;;3.02;80.55
6435;BME280;3250;42.694;23.278;2023-04-05T02:04:35;94367.19;;;2.95;80.10
6435;BME280;3250;42.694;23.278;2023-04-05T02:07:01;94358.53;;;2.80;79.93
6435;BME280;3250;42.694;23.278;2023-04-05T02:09:27;94382.59;;;2.96;80.85
6435;BME280;3250;42.694;23.278;2023-04-05T02:11:53;94362.25;;;2.85;80.38
6435;BME280;3250;42.694;23.278;2023-04-05T02:14:18;94389.34;;;3.06;80.48
6435;BME280;3250;42.694;23.278;2023-04-05T02:16:43;94371.31;;;2.89;80.17
6435;BME280;3250;42.694;23.278;2023-04-05T02:19:09;94342.69;;;2.75;80.22
6435;BME280;3250;42.694;23.278;2023-04-05T02:21:35;94388.91;;;3.02;80.35
6435;BME280;3250;42.694;23.278;2023-04-05T02:24:01;94389.97;;;3.08;80.00
6435;BME280;3250;42.694;23.278;2023-04-05T02:26:26;94369.50;;;2.90;80.11
6435;BME280;3250;42.694;23.278;2023-04-05T02:28:51;94387.56;;;3.06;80.00
6435;BME280;3250;42.694;23.278;2023-04-05T02:31:17;94390.88;;;3.00;79.88
6435;BME280;3250;42.694;23.278;2023-04-05T02:33:42;94395.25;;;2.99;80.38
6435;BME280;3250;42.694;23.278;2023-04-05T02:36:10;94376.16;;;2.92;80.80
6435;BME280;3250;42.694;23.278;2023-04-05T02:38:36;94385.66;;;3.00;81.19
6435;BME280;3250;42.694;23.278;2023-04-05T02:41:01;94391.44;;;3.10;80.75
6435;BME280;3250;42.694;23.278;2023-04-05T02:43:27;94374.16;;;2.94;80.46
6435;BME280;3250;42.694;23.278;2023-04-05T02:45:52;94381.19;;;3.09;81.49
6435;BME280;3250;42.694;23.278;2023-04-05T02:48:18;94378.88;;;3.14;81.09
6435;BME280;3250;42.694;23.278;2023-04-05T02:50:50;94379.25;;;3.11;81.45
6435;BME280;3250;42.694;23.278;2023-04-05T02:53:16;94351.66;;;2.87;81.08
6435;BME280;3250;42.694;23.278;2023-04-05T02:55:50;94379.25;;;3.11;80.90
6435;BME280;3250;42.694;23.278;2023-04-05T02:58:15;94354.09;;;3.03;81.28
6435;BME280;3250;42.694;23.278;2023-04-05T03:00:44;94357.81;;;3.09;80.72
6435;BME280;3250;42.694;23.278;2023-04-05T03:03:10;94331.16;;;2.92;80.27
6435;BME280;3250;42.694;23.278;2023-04-05T03:05:35;94377.16;;;3.21;80.47
6435;BME280;3250;42.694;23.278;2023-04-05T03:08:00;94372.97;;;3.20;80.41
6435;BME280;3250;42.694;23.278;2023-04-05T03:10:26;94368.63;;;3.12;80.60
6435;BME280;3250;42.694;23.278;2023-04-05T03:12:56;94356.69;;;3.03;80.75
6435;BME280;3250;42.694;23.278;2023-04-05T03:15:22;94380.31;;;3.16;81.17
6435;BME280;3250;42.694;23.278;2023-04-05T03:17:48;94376.44;;;3.12;80.93
6435;BME280;3250;42.694;23.278;2023-04-05T03:20:13;94361.13;;;3.02;81.02
6435;BME280;3250;42.694;23.278;2023-04-05T03:22:39;94347.75;;;2.91;81.66
6435;BME280;3250;42.694;23.278;2023-04-05T03:25:05;94382.00;;;3.09;80.94
6435;BME280;3250;42.694;23.278;2023-04-05T03:27:31;94364.22;;;2.98;81.40
6435;BME280;3250;42.694;23.278;2023-04-05T03:29:56;94352.94;;;2.91;81.42
6435;BME280;3250;42.694;23.278;2023-04-05T03:32:22;94379.50;;;3.01;81.01
6435;BME280;3250;42.694;23.278;2023-04-05T03:34:47;94380.75;;;3.05;81.20
6435;BME280;3250;42.694;23.278;2023-04-05T03:37:13;94359.75;;;2.92;80.97
6435;BME280;3250;42.694;23.278;2023-04-05T03:39:38;94381.72;;;3.04;80.65
6435;BME280;3250;42.694;23.278;2023-04-05T03:42:03;94382.69;;;3.03;81.29
6435;BME280;3250;42.694;23.278;2023-04-05T03:44:29;94369.97;;;2.93;81.75
6435;BME280;3250;42.694;23.278;2023-04-05T03:46:54;94387.91;;;3.03;82.13
6435;BME280;3250;42.694;23.278;2023-04-05T03:49:20;94360.09;;;2.89;82.13
6435;BME280;3250;42.694;23.278;2023-04-05T03:51:46;94389.25;;;2.99;81.69
6435;BME280;3250;42.694;23.278;2023-04-05T03:54:11;94396.88;;;3.00;81.87
6435;BME280;3250;42.694;23.278;2023-04-05T03:56:37;94396.41;;;2.97;81.75
6435;BME280;3250;42.694;23.278;2023-04-05T03:59:02;94383.78;;;2.94;82.24
6435;BME280;3250;42.694;23.278;2023-04-05T04:01:28;94384.38;;;2.96;82.20
6435;BME280;3250;42.694;23.278;2023-04-05T04:03:54;94384.56;;;2.94;82.30
6435;BME280;3250;42.694;23.278;2023-04-05T04:06:19;94342.84;;;2.73;82.13
6435;BME280;3250;42.694;23.278;2023-04-05T04:08:45;94397.22;;;2.97;82.54
6435;BME280;3250;42.694;23.278;2023-04-05T04:11:10;94406.72;;;3.05;82.77
6435;BME280;3250;42.694;23.278;2023-04-05T04:13:36;94404.13;;;3.05;82.73
6435;BME280;3250;42.694;23.278;2023-04-05T04:16:01;94350.19;;;2.70;82.87
6435;BME280;3250;42.694;23.278;2023-04-05T04:18:27;94392.19;;;2.96;82.98
6435;BME280;3250;42.694;23.278;2023-04-05T04:20:53;94403.97;;;3.07;82.76
6435;BME280;3250;42.694;23.278;2023-04-05T04:23:18;94403.31;;;3.04;82.76
6435;BME280;3250;42.694;23.278;2023-04-05T04:25:44;94392.19;;;2.96;82.97
6435;BME280;3250;42.694;23.278;2023-04-05T04:28:10;94399.00;;;2.97;82.68
6435;BME280;3250;42.694;23.278;2023-04-05T04:30:37;94394.19;;;2.94;82.91
6435;BME280;3250;42.694;23.278;2023-04-05T04:33:03;94382.03;;;2.86;83.27
6435;BME280;3250;42.694;23.278;2023-04-05T04:35:31;94403.50;;;3.03;83.65
6435;BME280;3250;42.694;23.278;2023-04-05T04:38:06;94408.66;;;3.11;83.27
6435;BME280;3250;42.694;23.278;2023-04-05T04:45:34;94416.31;;;3.27;82.73
6435;BME280;3250;42.694;23.278;2023-04-05T04:48:02;94422.66;;;3.25;82.41
6435;BME280;3250;42.694;23.278;2023-04-05T04:50:31;94426.50;;;3.29;82.50
6435;BME280;3250;42.694;23.278;2023-04-05T04:53:00;94420.41;;;3.22;82.05
6435;BME280;3250;42.694;23.278;2023-04-05T04:55:26;94418.78;;;3.21;83.37
6435;BME280;3250;42.694;23.278;2023-04-05T04:57:52;94423.63;;;3.24;82.47
6435;BME280;3250;42.694;23.278;2023-04-05T05:00:19;94424.50;;;3.01;81.51
6435;BME280;3250;42.694;23.278;2023-04-05T05:02:45;94416.41;;;2.96;81.93
6435;BME280;3250;42.694;23.278;2023-04-05T05:05:11;94409.41;;;2.97;82.20
6435;BME280;3250;42.694;23.278;2023-04-05T05:07:38;94415.41;;;2.97;82.29
6435;BME280;3250;42.694;23.278;2023-04-05T05:10:06;94412.00;;;2.97;82.84
6435;BME280;3250;42.694;23.278;2023-04-05T05:12:32;94422.06;;;3.00;83.17
6435;BME280;3250;42.694;23.278;2023-04-05T05:14:57;94412.00;;;2.97;82.42
6435;BME280;3250;42.694;23.278;2023-04-05T05:17:23;94420.84;;;3.11;82.92
6435;BME280;3250;42.694;23.278;2023-04-05T05:19:49;94427.53;;;3.05;82.09
6435;BME280;3250;42.694;23.278;2023-04-05T05:22:15;94413.06;;;2.88;82.21
6435;BME280;3250;42.694;23.278;2023-04-05T05:24:40;94432.47;;;3.00;83.19
6435;BME280;3250;42.694;23.278;2023-04-05T05:27:06;94414.59;;;2.97;82.86
6435;BME280;3250;42.694;23.278;2023-04-05T05:29:32;94426.03;;;3.11;82.23
6435;BME280;3250;42.694;23.278;2023-04-05T05:31:57;94418.75;;;3.06;82.35
6435;BME280;3250;42.694;23.278;2023-04-05T05:34:23;94427.38;;;3.21;82.18
6435;BME280;3250;42.694;23.278;2023-04-05T05:36:49;94427.94;;;3.31;81.39
6435;BME280;3250;42.694;23.278;2023-04-05T05:39:16;94433.44;;;3.36;81.38
6435;BME280;3250;42.694;23.278;2023-04-05T05:41:43;94408.50;;;3.27;81.72
6435;BME280;3250;42.694;23.278;2023-04-05T05:44:08;94420.16;;;3.46;80.99
6435;BME280;3250;42.694;23.278;2023-04-05T05:46:34;94426.72;;;3.57;80.46
6435;BME280;3250;42.694;23.278;2023-04-05T05:48:59;94407.69;;;3.56;80.40
6435;BME280;3250;42.694;23.278;2023-04-05T05:51:25;94429.59;;;3.76;79.88
6435;BME280;3250;42.694;23.278;2023-04-05T05:53:50;94402.41;;;3.64;79.24
6435;BME280;3250;42.694;23.278;2023-04-05T05:56:15;94428.34;;;3.87;79.06
6435;BME280;3250;42.694;23.278;2023-04-05T05:58:41;94418.47;;;3.97;79.16
6435;BME280;3250;42.694;23.278;2023-04-05T06:01:06;94431.56;;;4.04;78.70
6435;BME280;3250;42.694;23.278;2023-04-05T06:03:32;94409.31;;;4.01;77.13
6435;BME280;3250;42.694;23.278;2023-04-05T06:05:58;94422.38;;;4.08;76.67
6435;BME280;3250;42.694;23.278;2023-04-05T06:08:24;94434.72;;;4.14;77.15
6435;BME280;3250;42.694;23.278;2023-04-05T06:10:52;94436.03;;;4.25;77.42
6435;BME280;3250;42.694;23.278;2023-04-05T06:13:18;94438.28;;;4.28;75.23
6435;BME280;3250;42.694;23.278;2023-04-05T06:15:43;94445.28;;;4.27;75.51
6435;BME280;3250;42.694;23.278;2023-04-05T06:18:09;94438.91;;;4.30;75.86
6435;BME280;3250;42.694;23.278;2023-04-05T06:20:34;94444.34;;;4.35;76.01
6435;BME280;3250;42.694;23.278;2023-04-05T06:23:05;94439.59;;;4.38;76.76
6435;BME280;3250;42.694;23.278;2023-04-05T06:25:30;94446.25;;;4.41;75.85
6435;BME280;3250;42.694;23.278;2023-04-05T06:27:55;94446.50;;;4.46;75.51
6435;BME280;3250;42.694;23.278;2023-04-05T06:30:21;94420.28;;;4.33;75.02
6435;BME280;3250;42.694;23.278;2023-04-05T06:32:46;94448.94;;;4.47;75.08
6435;BME280;3250;42.694;23.278;2023-04-05T06:35:12;94440.53;;;4.52;75.73
6435;BME280;3250;42.694;23.278;2023-04-05T06:37:38;94447.66;;;4.58;74.83
6435;BME280;3250;42.694;23.278;2023-04-05T06:40:04;94456.41;;;4.72;75.32
6435;BME280;3250;42.694;23.278;2023-04-05T06:42:29;94454.66;;;4.79;74.82
6435;BME280;3250;42.694;23.278;2023-04-05T06:44:55;94440.13;;;4.70;74.57
6435;BME280;3250;42.694;23.278;2023-04-05T06:47:20;94440.53;;;4.88;76.63
6435;BME280;3250;42.694;23.278;2023-04-05T06:49:45;94448.91;;;5.05;74.53
6435;BME280;3250;42.694;23.278;2023-04-05T06:52:11;94471.75;;;5.24;73.97
6435;BME280;3250;42.694;23.278;2023-04-05T06:54:37;94475.00;;;5.26;72.86
6435;BME280;3250;42.694;23.278;2023-04-05T06:57:03;94462.66;;;5.41;73.05
6435;BME280;3250;42.694;23.278;2023-04-05T06:59:29;94477.22;;;5.78;72.76
6435;BME280;3250;42.694;23.278;2023-04-05T07:01:55;94462.69;;;5.69;70.74
6435;BME280;3250;42.694;23.278;2023-04-05T07:04:20;94488.06;;;5.82;70.48
6435;BME280;3250;42.694;23.278;2023-04-05T07:06:46;94482.94;;;5.67;70.43
6435;BME280;3250;42.694;23.278;2023-04-05T07:09:11;94496.44;;;5.71;70.64
6435;BME280;3250;42.694;23.278;2023-04-05T07:11:37;94501.22;;;5.67;70.79
6435;BME280;3250;42.694;23.278;2023-04-05T07:14:04;94495.31;;;5.58;70.60
6435;BME280;3250;42.694;23.278;2023-04-05T07:16:30;94497.44;;;5.48;71.34
6435;BME280;3250;42.694;23.278;2023-04-05T07:18:56;94507.22;;;5.61;72.91
6435;BME280;3250;42.694;23.278;2023-04-05T07:21:22;94508.81;;;5.62;71.44
6435;BME280;3250;42.694;23.278;2023-04-05T07:23:47;94502.53;;;5.56;71.51
6435;BME280;3250;42.694;23.278;2023-04-05T07:26:13;94498.63;;;5.46;71.25
6435;BME280;3250;42.694;23.278;2023-04-05T07:28:38;94507.25;;;5.46;71.67
6435;BME280;3250;42.694;23.278;2023-04-05T07:31:05;94502.63;;;5.42;72.10
6435;BME280;3250;42.694;23.278;2023-04-05T07:33:30;94501.63;;;5.43;72.58
6435;BME280;3250;42.694;23.278;2023-04-05T07:35:56;94488.94;;;5.40;72.78
6435;BME280;3250;42.694;23.278;2023-04-05T07:38:22;94508.75;;;5.55;72.54
6435;BME280;3250;42.694;23.278;2023-04-05T07:40:48;94511.34;;;5.55;71.28
6435;BME280;3250;42.694;23.278;2023-04-05T07:43:14;94498.63;;;5.46;72.04
6435;BME280;3250;42.694;23.278;2023-04-05T07:45:40;94512.56;;;5.53;72.02
6435;BME280;3250;42.694;23.278;2023-04-05T07:48:05;94505.31;;;5.27;70.94
6435;BME280;3250;42.694;23.278;2023-04-05T07:50:34;94494.84;;;5.06;70.87
6435;BME280;3250;42.694;23.278;2023-04-05T07:53:00;94524.25;;;5.14;71.37
6435;BME280;3250;42.694;23.278;2023-04-05T07:55:26;94536.78;;;5.04;72.06
6435;BME280;3250;42.694;23.278;2023-04-05T07:57:52;94533.66;;;4.94;71.80
6435;BME280;3250;42.694;23.278;2023-04-05T08:00:18;94528.47;;;4.79;72.26
6435;BME280;3250;42.694;23.278;2023-04-05T08:02:44;94532.34;;;4.83;72.12
6435;BME280;3250;42.694;23.278;2023-04-05T08:05:10;94524.19;;;4.72;72.66
6435;BME280;3250;42.694;23.278;2023-04-05T08:07:35;94523.38;;;4.71;72.94
6435;BME280;3250;42.694;23.278;2023-04-05T08:10:01;94542.56;;;4.85;73.22
6435;BME280;3250;42.694;23.278;2023-04-05T08:12:26;94513.94;;;4.70;72.92
6435;BME280;3250;42.694;23.278;2023-04-05T08:14:52;94544.19;;;4.86;72.47
6435;BME280;3250;42.694;23.278;2023-04-05T08:17:17;94546.78;;;4.86;72.86
6435;BME280;3250;42.694;23.278;2023-04-05T08:19:43;94551.66;;;4.89;72.49
6435;BME280;3250;42.694;23.278;2023-04-05T08:22:08;94540.53;;;4.80;72.47
6435;BME280;3250;42.694;23.278;2023-04-05T08:24:34;94529.09;;;4.81;72.69
6435;BME280;3250;42.694;23.278;2023-04-05T08:27:00;94530.72;;;4.82;71.81
6435;BME280;3250;42.694;23.278;2023-04-05T08:29:25;94538.28;;;4.77;72.58
6435;BME280;3250;42.694;23.278;2023-04-05T08:31:50;94531.25;;;4.78;73.81
6435;BME280;3250;42.694;23.278;2023-04-05T08:34:16;94545.16;;;5.00;73.90
6435;BME280;3250;42.694;23.278;2023-04-05T08:36:41;94556.09;;;5.10;72.78
6435;BME280;3250;42.694;23.278;2023-04-05T08:39:07;94545.53;;;4.97;71.67
6435;BME280;3250;42.694;23.278;2023-04-05T08:41:40;94558.44;;;5.05;72.44
6435;BME280;3250;42.694;23.278;2023-04-05T08:44:08;94525.88;;;4.79;72.27
6435;BME280;3250;42.694;23.278;2023-04-05T08:46:34;94562.84;;;5.04;74.07
6435;BME280;3250;42.694;23.278;2023-04-05T08:49:06;94541.69;;;4.92;73.95
6435;BME280;3250;42.694;23.278;2023-04-05T08:51:32;94566.97;;;5.13;73.79
6435;BME280;3250;42.694;23.278;2023-04-05T08:54:00;94567.66;;;5.22;74.61
6435;BME280;3250;42.694;23.278;2023-04-05T08:56:32;94567.31;;;5.25;73.36
6435;BME280;3250;42.694;23.278;2023-04-05T08:59:03;94566.31;;;5.26;73.46
6435;BME280;3250;42.694;23.278;2023-04-05T09:01:29;94568.91;;;5.26;74.70
6435;BME280;3250;42.694;23.278;2023-04-05T09:04:06;94560.53;;;5.30;74.30
6435;BME280;3250;42.694;23.278;2023-04-05T09:06:34;94581.09;;;5.40;72.81
6435;BME280;3250;42.694;23.278;2023-04-05T09:09:05;94585.56;;;5.46;72.82
6435;BME280;3250;42.694;23.278;2023-04-05T09:11:33;94587.31;;;5.39;72.20
6435;BME280;3250;42.694;23.278;2023-04-05T09:13:58;94566.72;;;5.29;72.58
6435;BME280;3250;42.694;23.278;2023-04-05T09:16:24;94586.88;;;5.36;71.76
6435;BME280;3250;42.694;23.278;2023-04-05T09:18:51;94589.41;;;5.29;72.20
6435;BME280;3250;42.694;23.278;2023-04-05T09:21:16;94567.41;;;5.17;73.39
6435;BME280;3250;42.694;23.278;2023-04-05T09:23:51;94594.59;;;5.44;74.08
6435;BME280;3250;42.694;23.278;2023-04-05T09:26:18;94590.88;;;5.53;72.52
6435;BME280;3250;42.694;23.278;2023-04-05T09:28:45;94564.19;;;5.57;72.62
6435;BME280;3250;42.694;23.278;2023-04-05T09:31:34;94574.94;;;5.69;71.71
6435;BME280;3250;42.694;23.278;2023-04-05T09:34:04;94563.97;;;5.80;74.30
6435;BME280;3250;42.694;23.278;2023-04-05T09:36:32;94566.56;;;5.95;71.38
6435;BME280;3250;42.694;23.278;2023-04-05T09:39:05;94583.59;;;6.19;72.43
6435;BME280;3250;42.694;23.278;2023-04-05T09:41:32;94577.91;;;6.36;70.46
6435;BME280;3250;42.694;23.278;2023-04-05T09:43:57;94586.56;;;6.37;70.64
6435;BME280;3250;42.694;23.278;2023-04-05T09:46:31;94576.31;;;6.42;69.17
6435;BME280;3250;42.694;23.278;2023-04-05T09:48:56;94580.13;;;6.39;69.52
6435;BME280;3250;42.694;23.278;2023-04-05T09:51:22;94581.31;;;6.37;69.94
6435;BME280;3250;42.694;23.278;2023-04-05T09:56:24;94566.28;;;6.11;68.39
6435;BME280;3250;42.694;23.278;2023-04-05T09:58:50;94583.25;;;6.22;68.52
6435;BME280;3250;42.694;23.278;2023-04-05T10:01:16;94587.81;;;6.13;68.20
6435;BME280;3250;42.694;23.278;2023-04-05T10:03:48;94558.09;;;5.93;68.38
6435;BME280;3250;42.694;23.278;2023-04-05T10:06:16;94590.34;;;6.06;69.83
6435;BME280;3250;42.694;23.278;2023-04-05T10:08:45;94583.44;;;5.99;68.04
6435;BME280;3250;42.694;23.278;2023-04-05T10:11:11;94570.78;;;5.96;68.83
6435;BME280;3250;42.694;23.278;2023-04-05T10:13:39;94587.00;;;6.13;69.25
6435;BME280;3250;42.694;23.278;2023-04-05T10:16:10;94574.91;;;6.12;67.16
6435;BME280;3250;42.694;23.278;2023-04-05T10:18:48;94584.91;;;6.29;66.31
6435;BME280;3250;42.694;23.278;2023-04-05T10:21:20;94587.69;;;6.28;66.97
6435;BME280;3250;42.694;23.278;2023-04-05T10:23:54;94586.84;;;6.49;66.54
6435;BME280;3250;42.694;23.278;2023-04-05T10:29:24;94590.34;;;6.69;66.58
6435;BME280;3250;42.694;23.278;2023-04-05T10:31:58;94594.66;;;6.83;66.37
6435;BME280;3250;42.694;23.278;2023-04-05T10:34:50;94584.06;;;7.04;67.38
6435;BME280;3250;42.694;23.278;2023-04-05T10:40:02;94585.97;;;7.24;65.70
6435;BME280;3250;42.694;23.278;2023-04-05T10:42:43;94587.19;;;7.34;64.43
6435;BME280;3250;42.694;23.278;2023-04-05T10:45:12;94586.03;;;7.56;65.20
6435;BME280;3250;42.694;23.278;2023-04-05T10:47:47;94587.47;;;7.66;64.97
6435;BME280;3250;42.694;23.278;2023-04-05T10:50:21;94593.91;;;7.63;63.40
6435;BME280;3250;42.694;23.278;2023-04-05T10:52:47;94595.91;;;7.61;63.62
6435;BME280;3250;42.694;23.278;2023-04-05T10:55:15;94597.31;;;7.70;63.85
6435;BME280;3250;42.694;23.278;2023-04-05T10:57:41;94590.31;;;7.77;65.63
6435;BME280;3250;42.694;23.278;2023-04-05T11:00:09;94594.75;;;7.77;63.47
6435;BME280;3250;42.694;23.278;2023-04-05T11:02:37;94583.59;;;7.48;64.70
6435;BME280;3250;42.694;23.278;2023-04-05T11:05:03;94603.31;;;7.44;62.13
6435;BME280;3250;42.694;23.278;2023-04-05T11:07:41;94598.06;;;7.44;64.09
6435;BME280;3250;42.694;23.278;2023-04-05T11:10:15;94595.09;;;7.54;64.57
6435;BME280;3250;42.694;23.278;2023-04-05T11:18:30;94605.28;;;7.23;60.98
6435;BME280;3250;42.694;23.278;2023-04-05T11:21:07;94602.19;;;7.06;62.77
6435;BME280;3250;42.694;23.278;2023-04-05T11:26:30;94589.19;;;6.78;63.55
6435;BME280;3250;42.694;23.278;2023-04-05T11:28:56;94598.06;;;6.83;63.96
6435;BME280;3250;42.694;23.278;2023-04-05T11:31:22;94591.63;;;6.86;63.32
6435;BME280;3250;42.694;23.278;2023-04-05T11:34:12;94591.63;;;6.86;64.06
6435;BME280;3250;42.694;23.278;2023-04-05T11:36:41;94591.00;;;6.84;65.04
6435;BME280;3250;42.694;23.278;2023-04-05T11:41:53;94596.59;;;7.15;65.30
6435;BME280;3250;42.694;23.278;2023-04-05T11:44:18;94596.66;;;7.35;64.40
6435;BME280;3250;42.694;23.278;2023-04-05T11:46:45;94600.69;;;7.44;61.72
6435;BME280;3250;42.694;23.278;2023-04-05T11:49:14;94600.28;;;7.34;61.91
6435;BME280;3250;42.694;23.278;2023-04-05T11:51:40;94577.69;;;7.20;61.78
6435;BME280;3250;42.694;23.278;2023-04-05T11:54:13;94567.56;;;7.10;61.22
6435;BME280;3250;42.694;23.278;2023-04-05T11:56:39;94590.00;;;7.26;62.67
6435;BME280;3250;42.694;23.278;2023-04-05T11:59:06;94581.09;;;7.20;62.59
6435;BME280;3250;42.694;23.278;2023-04-05T12:01:32;94578.50;;;7.27;63.52
6435;BME280;3250;42.694;23.278;2023-04-05T12:03:57;94582.78;;;7.41;64.03
6435;BME280;3250;42.694;23.278;2023-04-05T12:06:24;94587.22;;;7.41;62.73
6435;BME280;3250;42.694;23.278;2023-04-05T12:08:50;94583.97;;;7.39;62.87
6435;BME280;3250;42.694;23.278;2023-04-05T12:11:27;94591.84;;;7.39;62.24
6435;BME280;3250;42.694;23.278;2023-04-05T12:13:55;94595.81;;;7.28;61.52
6435;BME280;3250;42.694;23.278;2023-04-05T12:16:23;94596.44;;;7.24;63.08
6435;BME280;3250;42.694;23.278;2023-04-05T12:18:56;94570.41;;;7.09;63.92
6435;BME280;3250;42.694;23.278;2023-04-05T12:21:22;94591.81;;;7.26;63.10
6435;BME280;3250;42.694;23.278;2023-04-05T12:23:48;94577.84;;;7.12;62.73
6435;BME280;3250;42.694;23.278;2023-04-05T12:26:14;94596.78;;;7.14;63.67
6435;BME280;3250;42.694;23.278;2023-04-05T12:28:52;94595.19;;;7.13;63.32
6435;BME280;3250;42.694;23.278;2023-04-05T12:31:40;94592.28;;;6.95;63.16
6435;BME280;3250;42.694;23.278;2023-04-05T12:34:07;94593.88;;;6.89;63.59
6435;BME280;3250;42.694;23.278;2023-04-05T12:36:32;94581.88;;;6.67;64.76
6435;BME280;3250;42.694;23.278;2023-04-05T12:38:59;94598.66;;;6.44;64.55
6435;BME280;3250;42.694;23.278;2023-04-05T12:41:31;94581.69;;;6.34;66.10
6435;BME280;3250;42.694;23.278;2023-04-05T12:43:57;94587.88;;;6.26;65.62
6435;BME280;3250;42.694;23.278;2023-04-05T12:46:42;94594.72;;;6.27;67.45
6435;BME280;3250;42.694;23.278;2023-04-05T12:49:16;94595.28;;;6.23;68.00
6435;BME280;3250;42.694;23.278;2023-04-05T12:51:46;94569.78;;;6.25;68.17
6435;BME280;3250;42.694;23.278;2023-04-05T12:54:22;94589.00;;;6.45;67.35
6435;BME280;3250;42.694;23.278;2023-04-05T12:56:51;94593.94;;;6.33;65.77
6435;BME280;3250;42.694;23.278;2023-04-05T12:59:18;94592.28;;;6.26;65.94
6435;BME280;3250;42.694;23.278;2023-04-05T13:01:44;94599.56;;;6.02;64.83
6435;BME280;3250;42.694;23.278;2023-04-05T13:04:09;94595.53;;;6.00;66.52
6435;BME280;3250;42.694;23.278;2023-04-05T13:06:35;94590.00;;;5.88;65.21
6435;BME280;3250;42.694;23.278;2023-04-05T13:09:00;94599.75;;;6.01;66.20
6435;BME280;3250;42.694;23.278;2023-04-05T13:11:26;94613.34;;;6.18;65.93
6435;BME280;3250;42.694;23.278;2023-04-05T13:13:52;94602.84;;;6.11;64.51
6435;BME280;3250;42.694;23.278;2023-04-05T13:16:17;94606.69;;;6.15;66.18
6435;BME280;3250;42.694;23.278;2023-04-05T13:18:43;94608.94;;;6.18;65.94
6435;BME280;3250;42.694;23.278;2023-04-05T13:21:09;94601.59;;;6.35;65.50
6435;BME280;3250;42.694;23.278;2023-04-05T13:23:36;94602.88;;;6.46;66.35
6435;BME280;3250;42.694;23.278;2023-04-05T13:26:02;94586.13;;;6.68;66.28
6435;BME280;3250;42.694;23.278;2023-04-05T13:28:27;94599.94;;;6.96;63.95
6435;BME280;3250;42.694;23.278;2023-04-05T13:30:53;94578.56;;;6.93;63.70
6435;BME280;3250;42.694;23.278;2023-04-05T13:33:18;94603.78;;;7.00;62.34
6435;BME280;3250;42.694;23.278;2023-04-05T13:35:44;94585.25;;;6.95;61.93
6435;BME280;3250;42.694;23.278;2023-04-05T13:38:10;94585.50;;;7.13;64.37
6435;BME280;3250;42.694;23.278;2023-04-05T13:40:35;94603.03;;;7.19;63.32
6435;BME280;3250;42.694;23.278;2023-04-05T13:43:01;94597.22;;;7.17;63.69
6435;BME280;3250;42.694;23.278;2023-04-05T13:45:26;94601.88;;;7.29;62.61
6435;BME280;3250;42.694;23.278;2023-04-05T13:47:52;94603.84;;;7.13;63.65
6435;BME280;3250;42.694;23.278;2023-04-05T13:50:18;94601.56;;;6.97;63.22
6435;BME280;3250;42.694;23.278;2023-04-05T13:52:43;94611.22;;;6.97;63.00
6435;BME280;3250;42.694;23.278;2023-04-05T13:55:09;94611.84;;;7.05;64.28
6435;BME280;3250;42.694;23.278;2023-04-05T13:57:34;94609.66;;;7.09;64.29
6435;BME280;3250;42.694;23.278;2023-04-05T14:00:00;94602.72;;;6.88;63.76
6435;BME280;3250;42.694;23.278;2023-04-05T14:02:25;94613.03;;;6.96;64.31